createdAt,value
2022-11-05T00:00:08.342Z,67.90
2022-11-05T00:02:53.657Z,68.29
2022-11-05T00:05:39.010Z,68.33
2022-11-05T00:08:24.343Z,67.80
2022-11-05T00:10:51.063Z,68.84
2022-11-05T00:13:36.300Z,68.51
2022-11-05T00:16:41.107Z,69.17
2022-11-05T00:19:07.969Z,69.47
2022-11-05T00:21:54.612Z,69.56
2022-11-05T00:24:40.380Z,68.93
2022-11-05T00:27:07.779Z,68.88
2022-11-05T00:29:35.321Z,69.14
2022-11-05T00:32:02.149Z,69.76
2022-11-05T00:34:28.806Z,68.99
2022-11-05T00:36:56.237Z,69.46
2022-11-05T00:39:22.855Z,69.97
2022-11-05T00:42:09.475Z,69.05
2022-11-05T00:44:54.774Z,69.20
2022-11-05T00:47:40.047Z,69.09
2022-11-05T00:50:06.927Z,68.61
2022-11-05T00:52:52.007Z,69.35
2022-11-05T00:55:18.632Z,69.08
2022-11-05T00:57:45.406Z,68.98
2022-11-05T01:00:12.635Z,68.87
2022-11-05T01:02:40.425Z,68.64
2022-11-05T01:05:07.717Z,68.67
2022-11-05T01:07:34.357Z,70.05
2022-11-05T01:10:01.058Z,69.39
2022-11-05T01:12:27.617Z,69.47
2022-11-05T01:14:54.261Z,69.93
2022-11-05T01:17:20.892Z,70.92
2022-11-05T01:19:47.503Z,70.20
2022-11-05T01:22:14.158Z,69.72
2022-11-05T01:24:40.954Z,70.32
2022-11-05T01:27:07.590Z,71.67
2022-11-05T01:29:34.228Z,70.72
2022-11-05T01:32:01.059Z,71.50
2022-11-05T01:34:27.750Z,70.52
2022-11-05T01:36:54.347Z,70.12
2022-11-05T01:39:21.046Z,70.10
2022-11-05T01:41:47.659Z,69.57
2022-11-05T01:44:51.711Z,69.38
2022-11-05T01:47:29.612Z,69.45
2022-11-05T01:49:59.360Z,70.23
2022-11-05T01:52:27.574Z,70.37
2022-11-05T01:54:54.715Z,69.56
2022-11-05T01:57:21.586Z,70.08
2022-11-05T01:59:53.031Z,70.47
2022-11-05T02:02:19.703Z,69.99
2022-11-05T02:04:51.975Z,69.14
2022-11-05T02:07:19.477Z,69.64
2022-11-05T02:09:58.034Z,69.23
2022-11-05T02:12:25.340Z,68.32
2022-11-05T02:14:51.931Z,69.98
2022-11-05T02:17:38.079Z,68.82
2022-11-05T02:20:35.726Z,68.92
2022-11-05T02:23:21.960Z,68.94
2022-11-05T02:26:17.952Z,69.83
2022-11-05T02:28:56.856Z,69.70
2022-11-05T02:31:45.135Z,68.12
2022-11-05T02:34:22.259Z,68.35
2022-11-05T02:36:54.601Z,68.14
2022-11-05T02:39:42.967Z,68.45
2022-11-05T02:42:18.787Z,67.89
2022-11-05T02:45:00.815Z,67.78
2022-11-05T02:47:41.260Z,67.74
2022-11-05T02:50:17.002Z,67.73
2022-11-05T02:52:51.791Z,68.13
2022-11-05T02:55:42.529Z,67.72
2022-11-05T02:58:10.298Z,68.11
2022-11-05T03:00:53.253Z,67.53
2022-11-05T03:03:42.947Z,67.74
2022-11-05T03:06:24.838Z,67.68
2022-11-05T03:09:27.532Z,67.50
2022-11-05T03:12:19.586Z,67.37
2022-11-05T03:14:58.277Z,67.41
2022-11-05T03:17:57.331Z,67.34
2022-11-05T03:20:39.719Z,68.36
2022-11-05T03:23:17.012Z,68.03
2022-11-05T03:25:49.385Z,67.00
2022-11-05T03:28:21.688Z,67.20
2022-11-05T03:30:51.631Z,67.09
2022-11-05T03:33:26.099Z,67.51
2022-11-05T03:35:57.133Z,67.38
2022-11-05T03:38:37.354Z,66.86
2022-11-05T03:41:08.607Z,67.07
2022-11-05T03:43:40.663Z,66.94
2022-11-05T03:46:16.190Z,67.78
2022-11-05T03:48:47.538Z,67.42
2022-11-05T03:51:14.216Z,67.15
2022-11-05T03:53:49.668Z,67.25
2022-11-05T03:56:40.130Z,67.10
2022-11-05T03:59:09.361Z,67.50
2022-11-05T04:01:37.405Z,68.10
2022-11-05T04:04:06.535Z,68.14
2022-11-05T04:06:51.677Z,68.26
2022-11-05T04:09:36.977Z,68.34
2022-11-05T04:12:22.233Z,68.32
2022-11-05T04:14:48.957Z,68.53
2022-11-05T04:17:15.631Z,68.49
2022-11-05T04:20:02.975Z,67.86
2022-11-05T04:22:53.346Z,68.19
2022-11-05T04:25:21.179Z,68.09
2022-11-05T04:27:48.538Z,68.32
2022-11-05T04:30:20.194Z,68.05
2022-11-05T04:33:02.219Z,67.98
2022-11-05T04:35:47.101Z,68.76
2022-11-05T04:38:18.961Z,68.20
2022-11-05T04:40:47.025Z,68.54
2022-11-05T04:43:16.327Z,68.50
2022-11-05T04:45:43.809Z,69.13
2022-11-05T04:48:11.111Z,70.64
2022-11-05T04:50:37.997Z,69.12
2022-11-05T04:53:04.656Z,69.91
2022-11-05T04:55:31.317Z,70.00
2022-11-05T04:57:57.900Z,70.55
2022-11-05T05:00:24.921Z,69.35
2022-11-05T05:02:51.658Z,71.11
2022-11-05T05:05:18.470Z,71.41
2022-11-05T05:07:45.177Z,70.13
2022-11-05T05:10:12.866Z,70.85
2022-11-05T05:12:39.496Z,70.70
2022-11-05T05:15:06.626Z,69.91
2022-11-05T05:17:33.609Z,71.65
2022-11-05T05:20:18.839Z,70.42
2022-11-05T05:22:54.839Z,70.50
2022-11-05T05:25:22.370Z,71.16
2022-11-05T05:27:48.960Z,71.47
2022-11-05T05:30:15.577Z,72.00
2022-11-05T05:32:42.166Z,72.70
2022-11-05T05:35:09.396Z,73.38
2022-11-05T05:37:36.058Z,73.73
2022-11-05T05:40:02.794Z,71.86
2022-11-05T05:42:29.397Z,71.83
2022-11-05T05:44:56.001Z,71.46
2022-11-05T05:47:22.680Z,71.08
2022-11-05T05:49:49.533Z,69.87
2022-11-05T05:52:16.104Z,69.56
2022-11-05T05:54:43.229Z,68.66
2022-11-05T05:57:10.067Z,68.82
2022-11-05T05:59:36.719Z,68.70
2022-11-05T06:02:03.588Z,68.34
2022-11-05T06:04:30.289Z,69.01
2022-11-05T06:06:56.879Z,69.73
2022-11-05T06:09:23.528Z,70.77
2022-11-05T06:11:50.081Z,70.90
2022-11-05T06:14:16.696Z,69.90
2022-11-05T06:16:43.307Z,69.92
2022-11-05T06:19:09.913Z,69.96
2022-11-05T06:21:36.651Z,69.16
2022-11-05T06:24:03.510Z,68.76
2022-11-05T06:26:30.574Z,69.05
2022-11-05T06:28:57.286Z,68.64
2022-11-05T06:31:24.359Z,70.15
2022-11-05T06:33:51.108Z,69.76
2022-11-05T06:36:19.306Z,69.64
2022-11-05T06:38:46.089Z,70.70
2022-11-05T06:41:12.702Z,70.79
2022-11-05T06:43:39.905Z,70.78
2022-11-05T06:46:07.314Z,70.81
2022-11-05T06:48:34.560Z,70.30
2022-11-05T06:51:01.291Z,70.51
2022-11-05T06:53:28.196Z,69.90
2022-11-05T06:55:54.913Z,71.99
2022-11-05T06:58:21.929Z,70.32
2022-11-05T07:00:48.989Z,71.16
2022-11-05T07:03:16.007Z,71.38
2022-11-05T07:05:46.101Z,71.17
2022-11-05T07:08:12.826Z,69.84
2022-11-05T07:10:39.494Z,69.61
2022-11-05T07:13:08.449Z,69.55
2022-11-05T07:15:35.798Z,69.12
2022-11-05T07:18:02.797Z,68.80
2022-11-05T07:20:33.977Z,70.16
2022-11-05T07:23:11.119Z,69.27
2022-11-05T07:25:38.834Z,70.13
2022-11-05T07:28:06.083Z,68.42
2022-11-05T07:30:34.296Z,62.39
2022-11-05T07:33:01.031Z,56.78
2022-11-05T07:35:27.906Z,52.78
2022-11-05T07:37:55.520Z,50.94
2022-11-05T07:40:24.518Z,49.63
2022-11-05T07:42:56.671Z,48.83
2022-11-05T07:45:23.918Z,48.78
2022-11-05T07:47:52.807Z,45.97
2022-11-05T07:50:21.378Z,47.74
2022-11-05T07:52:48.760Z,51.96
2022-11-05T07:55:16.852Z,55.06
2022-11-05T07:57:45.480Z,57.92
2022-11-05T08:00:15.185Z,60.50
2022-11-05T08:02:42.715Z,62.58
2022-11-05T08:05:10.195Z,64.48
2022-11-05T08:07:36.863Z,65.98
2022-11-05T08:10:04.553Z,66.07
2022-11-05T08:12:32.514Z,67.15
2022-11-05T08:14:59.221Z,67.70
2022-11-05T08:17:25.885Z,68.24
2022-11-05T08:19:52.628Z,68.79
2022-11-05T08:22:19.258Z,67.93
2022-11-05T08:24:46.086Z,68.63
2022-11-05T08:27:12.769Z,69.17
2022-11-05T08:29:39.440Z,68.49
2022-11-05T08:32:06.094Z,68.65
2022-11-05T08:34:32.799Z,68.24
2022-11-05T08:37:01.558Z,67.09
2022-11-05T08:39:28.301Z,67.57
2022-11-05T08:41:55.041Z,67.21
2022-11-05T08:44:21.758Z,67.38
2022-11-05T08:46:48.486Z,66.61
2022-11-05T08:49:15.088Z,67.73
2022-11-05T08:51:44.237Z,66.99
2022-11-05T08:54:11.021Z,66.59
2022-11-05T08:56:37.657Z,66.71
2022-11-05T08:59:04.536Z,65.90
2022-11-05T09:01:35.167Z,66.23
2022-11-05T09:04:11.634Z,66.10
2022-11-05T09:06:38.298Z,66.80
2022-11-05T09:09:04.969Z,65.44
2022-11-05T09:11:56.945Z,65.94
2022-11-05T09:14:18.265Z,65.30
2022-11-05T09:16:44.962Z,65.08
2022-11-05T09:19:11.620Z,64.91
2022-11-05T09:21:38.214Z,65.03
2022-11-05T09:24:05.094Z,64.34
2022-11-05T09:26:31.670Z,63.92
2022-11-05T09:28:58.314Z,63.57
2022-11-05T09:31:24.943Z,64.02
2022-11-05T09:33:51.652Z,62.59
2022-11-05T09:36:18.329Z,62.43
2022-11-05T09:38:45.053Z,61.74
2022-11-05T09:41:29.357Z,61.39
2022-11-05T09:44:19.849Z,61.28
2022-11-05T09:47:10.954Z,61.46
2022-11-05T09:49:57.059Z,59.90
2022-11-05T09:52:33.037Z,59.98
2022-11-05T09:55:00.116Z,60.77
2022-11-05T09:57:38.033Z,60.04
2022-11-05T10:00:07.122Z,59.80
2022-11-05T10:02:37.695Z,60.66
2022-11-05T10:05:10.350Z,59.60
2022-11-05T10:07:48.244Z,58.24
2022-11-05T10:10:41.132Z,57.88
2022-11-05T10:13:45.945Z,57.57
2022-11-05T10:16:43.671Z,57.39
2022-11-05T10:19:16.957Z,58.19
2022-11-05T10:22:05.398Z,56.08
2022-11-05T10:24:30.342Z,54.66
2022-11-05T10:26:57.722Z,52.17
2022-11-05T10:29:32.510Z,51.97
2022-11-05T10:32:01.667Z,50.34
2022-11-05T10:34:32.284Z,50.79
2022-11-05T10:36:59.171Z,51.02
2022-11-05T10:39:27.921Z,50.36
2022-11-05T10:42:13.474Z,49.74
2022-11-05T10:45:04.562Z,50.21
2022-11-05T10:48:04.946Z,48.22
2022-11-05T10:50:32.398Z,49.35
2022-11-05T10:53:05.382Z,48.12
2022-11-05T10:55:37.617Z,48.99
2022-11-05T10:58:13.261Z,47.74
2022-11-05T11:00:40.707Z,47.31
2022-11-05T11:03:27.173Z,45.31
2022-11-05T11:06:00.627Z,42.58
2022-11-05T11:08:28.428Z,44.83
2022-11-05T11:10:58.224Z,45.37
2022-11-05T11:13:48.259Z,46.24
2022-11-05T11:16:20.780Z,49.06
2022-11-05T11:18:56.453Z,50.23
2022-11-05T11:21:24.252Z,52.21
2022-11-05T11:24:03.113Z,53.61
2022-11-05T11:26:33.582Z,54.53
2022-11-05T11:29:05.975Z,52.50
2022-11-05T11:31:37.667Z,50.18
2022-11-05T11:34:26.112Z,49.06
2022-11-05T11:36:57.595Z,49.59
2022-11-05T11:39:29.111Z,50.63
2022-11-05T11:41:59.853Z,51.39
2022-11-05T11:44:30.746Z,51.48
2022-11-05T11:47:02.435Z,51.51
2022-11-05T11:49:38.127Z,50.18
2022-11-05T11:52:11.482Z,48.86
2022-11-05T11:54:38.418Z,47.27
2022-11-05T11:57:27.354Z,44.41
2022-11-05T12:00:12.644Z,43.59
2022-11-05T12:03:07.223Z,41.56
2022-11-05T12:05:34.171Z,40.93
2022-11-05T12:08:11.215Z,41.25
2022-11-05T12:10:53.124Z,43.62
2022-11-05T12:13:20.460Z,46.40
2022-11-05T12:16:22.574Z,48.01
2022-11-05T12:18:58.691Z,49.20
2022-11-05T12:21:51.406Z,48.47
2022-11-05T12:24:36.458Z,48.07
2022-11-05T12:27:24.190Z,46.16
2022-11-05T12:30:09.431Z,44.12
2022-11-05T12:33:04.387Z,45.12
2022-11-05T12:35:34.190Z,44.10
2022-11-05T12:38:11.589Z,43.59
2022-11-05T12:41:15.002Z,44.82
2022-11-05T12:44:03.184Z,44.65
2022-11-05T12:46:36.392Z,46.29
2022-11-05T12:49:47.269Z,45.87
2022-11-05T12:52:27.897Z,47.07
2022-11-05T12:55:04.180Z,47.59
2022-11-05T12:57:33.615Z,48.31
2022-11-05T13:00:16.364Z,48.88
2022-11-05T13:02:54.294Z,49.12
2022-11-05T13:05:37.531Z,49.67
2022-11-05T13:08:19.036Z,50.73
2022-11-05T13:11:03.370Z,50.45
2022-11-05T13:13:38.604Z,48.93
2022-11-05T13:16:28.289Z,48.05
2022-11-05T13:19:02.744Z,47.94
2022-11-05T13:21:30.652Z,47.75
2022-11-05T13:24:11.056Z,48.09
2022-11-05T13:26:42.803Z,47.94
2022-11-05T13:29:20.327Z,49.22
2022-11-05T13:31:53.267Z,48.18
2022-11-05T13:34:19.916Z,47.74
2022-11-05T13:37:17.664Z,47.38
2022-11-05T13:39:59.411Z,45.91
2022-11-05T13:42:44.810Z,44.54
2022-11-05T13:45:36.442Z,44.29
2022-11-05T13:48:30.867Z,44.34
2022-11-05T13:51:37.682Z,43.66
2022-11-05T13:54:44.810Z,43.44
2022-11-05T13:57:26.680Z,44.32
2022-11-05T14:00:24.228Z,45.52
2022-11-05T14:02:56.940Z,45.88
2022-11-05T14:05:32.370Z,46.50
2022-11-05T14:08:01.309Z,46.44
2022-11-05T14:10:35.247Z,47.25
2022-11-05T14:13:16.114Z,46.97
2022-11-05T14:15:56.806Z,47.63
2022-11-05T14:18:54.862Z,46.65
2022-11-05T14:21:27.547Z,47.39
2022-11-05T14:24:13.964Z,49.07
2022-11-05T14:26:40.910Z,49.36
2022-11-05T14:29:10.462Z,49.73
2022-11-05T14:32:08.270Z,48.86
2022-11-05T14:35:02.289Z,50.09
2022-11-05T14:37:40.409Z,49.68
2022-11-05T14:40:22.410Z,50.43
2022-11-05T14:42:55.531Z,50.53
2022-11-05T14:45:32.725Z,50.31
2022-11-05T14:48:02.599Z,49.80
2022-11-05T14:50:37.062Z,50.50
2022-11-05T14:53:10.993Z,50.54
2022-11-05T14:55:42.944Z,50.72
2022-11-05T14:58:31.787Z,50.80
2022-11-05T15:00:59.111Z,50.48
2022-11-05T15:03:45.898Z,50.62
2022-11-05T15:06:33.567Z,51.28
2022-11-05T15:09:26.833Z,51.71
2022-11-05T15:12:00.354Z,51.82
2022-11-05T15:14:54.906Z,51.22
2022-11-05T15:17:30.240Z,51.64
2022-11-05T15:20:09.344Z,51.65
2022-11-05T15:22:41.451Z,51.46
2022-11-05T15:25:42.010Z,51.29
2022-11-05T15:28:11.861Z,51.53
2022-11-05T15:30:38.588Z,51.30
2022-11-05T15:33:29.921Z,51.53
2022-11-05T15:36:07.702Z,51.57
2022-11-05T15:38:35.281Z,52.79
2022-11-05T15:41:03.290Z,52.71
2022-11-05T15:43:30.046Z,52.78
2022-11-05T15:46:03.533Z,52.82
2022-11-05T15:48:30.243Z,52.61
2022-11-05T15:50:57.409Z,52.83
2022-11-05T15:53:51.469Z,52.30
2022-11-05T15:56:40.131Z,52.95
2022-11-05T15:59:14.167Z,53.11
2022-11-05T16:01:56.351Z,52.83
2022-11-05T16:04:30.324Z,52.89
2022-11-05T16:07:09.382Z,52.98
2022-11-05T16:09:40.042Z,52.93
2022-11-05T16:12:19.430Z,52.84
2022-11-05T16:15:05.048Z,53.77
2022-11-05T16:17:48.734Z,54.03
2022-11-05T16:20:26.517Z,53.03
2022-11-05T16:23:21.806Z,53.34
2022-11-05T16:25:48.690Z,53.93
2022-11-05T16:28:30.148Z,54.81
2022-11-05T16:30:58.239Z,54.80
2022-11-05T16:33:45.538Z,54.94
2022-11-05T16:36:12.443Z,54.70
2022-11-05T16:38:39.663Z,55.70
2022-11-05T16:41:06.486Z,56.50
2022-11-05T16:43:33.567Z,55.76
2022-11-05T16:46:00.993Z,55.12
2022-11-05T16:48:28.172Z,55.36
2022-11-05T16:50:54.850Z,55.39
2022-11-05T16:53:21.474Z,56.79
2022-11-05T16:55:48.429Z,55.75
2022-11-05T16:58:23.118Z,55.49
2022-11-05T17:00:52.022Z,57.39
2022-11-05T17:03:19.044Z,56.42
2022-11-05T17:05:45.965Z,56.84
2022-11-05T17:08:12.853Z,59.40
2022-11-05T17:10:39.709Z,58.70
2022-11-05T17:13:06.446Z,59.60
2022-11-05T17:15:36.897Z,58.55
2022-11-05T17:18:05.222Z,57.90
2022-11-05T17:20:36.753Z,57.38
2022-11-05T17:23:08.180Z,56.70
2022-11-05T17:25:35.369Z,57.50
2022-11-05T17:28:02.552Z,58.46
2022-11-05T17:30:29.224Z,59.19
2022-11-05T17:32:56.137Z,58.78
2022-11-05T17:35:22.873Z,58.51
2022-11-05T17:37:50.030Z,57.08
2022-11-05T17:40:19.671Z,57.38
2022-11-05T17:42:46.493Z,57.24
2022-11-05T17:45:13.694Z,57.15
2022-11-05T17:47:41.791Z,58.03
2022-11-05T17:50:11.290Z,58.03
2022-11-05T17:52:38.615Z,57.47
2022-11-05T17:55:07.285Z,58.29
2022-11-05T17:57:34.152Z,57.78
2022-11-05T18:00:00.774Z,59.36
2022-11-05T18:02:29.613Z,58.20
2022-11-05T18:04:56.309Z,57.81
2022-11-05T18:07:22.975Z,57.28
2022-11-05T18:09:49.597Z,56.96
2022-11-05T18:12:16.214Z,56.45
2022-11-05T18:14:42.928Z,56.59
2022-11-05T18:17:09.624Z,56.04
2022-11-05T18:19:38.743Z,55.77
2022-11-05T18:22:05.509Z,56.57
2022-11-05T18:24:32.503Z,56.79
2022-11-05T18:26:59.192Z,57.70
2022-11-05T18:29:25.838Z,57.29
2022-11-05T18:31:52.650Z,57.40
2022-11-05T18:34:19.239Z,57.40
2022-11-05T18:36:45.941Z,56.99
2022-11-05T18:39:12.611Z,57.01
2022-11-05T18:41:39.296Z,56.22
2022-11-05T18:44:06.001Z,56.62
2022-11-05T18:49:19.934Z,56.28
2022-11-05T18:51:46.568Z,56.72
2022-11-05T18:54:13.283Z,55.69
2022-11-05T18:56:45.340Z,56.20
2022-11-05T18:59:39.800Z,56.36
2022-11-05T19:02:00.803Z,55.79
2022-11-05T19:04:27.894Z,55.53
2022-11-05T19:06:54.510Z,55.16
2022-11-05T19:09:21.093Z,55.63
2022-11-05T19:11:47.859Z,55.56
2022-11-05T19:14:14.513Z,56.53
2022-11-05T19:16:41.551Z,56.74
2022-11-05T19:19:08.263Z,57.50
2022-11-05T19:21:34.895Z,56.93
2022-11-05T19:24:03.049Z,56.27
2022-11-05T19:26:30.438Z,56.19
2022-11-05T19:28:59.115Z,56.00
2022-11-05T19:31:26.543Z,55.95
2022-11-05T19:33:54.487Z,56.39
2022-11-05T19:36:23.426Z,56.44
2022-11-05T19:38:56.124Z,56.92
2022-11-05T19:41:23.551Z,56.81
2022-11-05T19:43:50.791Z,57.51
2022-11-05T19:46:19.408Z,57.49
2022-11-05T19:48:46.666Z,57.87
2022-11-05T19:51:16.246Z,57.08
2022-11-05T19:53:44.393Z,58.29
2022-11-05T19:56:14.314Z,58.90
2022-11-05T19:58:41.287Z,57.91
2022-11-05T20:01:08.507Z,58.90
2022-11-05T20:03:35.326Z,59.25
2022-11-05T20:06:13.392Z,58.89
2022-11-05T20:08:59.786Z,58.38
2022-11-05T20:11:27.252Z,57.78
2022-11-05T20:13:53.857Z,58.57
2022-11-05T20:16:26.038Z,58.75
2022-11-05T20:18:53.077Z,58.74
2022-11-05T20:21:20.417Z,59.81
2022-11-05T20:23:48.420Z,59.04
2022-11-05T20:26:16.305Z,59.12
2022-11-05T20:28:43.800Z,58.80
2022-11-05T20:31:13.303Z,58.37
2022-11-05T20:33:41.110Z,59.19
2022-11-05T20:36:12.274Z,58.71
2022-11-05T20:38:39.144Z,59.55
2022-11-05T20:41:07.990Z,58.99
2022-11-05T20:43:35.193Z,57.72
2022-11-05T20:46:02.112Z,58.44
2022-11-05T20:48:33.138Z,57.79
2022-11-05T20:51:03.899Z,57.88
2022-11-05T20:53:30.608Z,58.27
2022-11-05T20:55:57.575Z,58.71
2022-11-05T20:58:24.765Z,57.81
2022-11-05T21:00:55.230Z,58.68
2022-11-05T21:03:22.906Z,59.16
2022-11-05T21:05:50.618Z,59.00
2022-11-05T21:08:17.255Z,59.37
2022-11-05T21:10:49.998Z,59.31
2022-11-05T21:13:18.031Z,59.42
2022-11-05T21:15:50.287Z,59.67
2022-11-05T21:18:24.769Z,59.22
2022-11-05T21:20:52.657Z,58.49
2022-11-05T21:23:19.703Z,58.47
2022-11-05T21:25:47.294Z,59.71
2022-11-05T21:28:14.792Z,58.44
2022-11-05T21:30:45.592Z,58.83
2022-11-05T21:33:14.402Z,58.68
2022-11-05T21:35:44.120Z,59.79
2022-11-05T21:38:11.995Z,58.67
2022-11-05T21:40:39.061Z,59.40
2022-11-05T21:43:06.672Z,58.37
2022-11-05T21:45:33.167Z,58.32
2022-11-05T21:47:59.855Z,58.71
2022-11-05T21:50:45.091Z,58.55
2022-11-05T21:53:35.175Z,59.24
2022-11-05T21:56:44.840Z,58.33
2022-11-05T21:59:33.253Z,59.31
2022-11-05T22:02:03.385Z,57.78
2022-11-05T22:04:31.976Z,58.04
2022-11-05T22:06:58.805Z,58.34
2022-11-05T22:09:25.970Z,58.05
2022-11-05T22:11:52.772Z,58.23
2022-11-05T22:14:19.504Z,58.14
2022-11-05T22:16:46.079Z,57.83
2022-11-05T22:19:13.005Z,57.64
2022-11-05T22:21:39.703Z,59.03
2022-11-05T22:24:07.466Z,58.20
2022-11-05T22:26:35.352Z,58.34
2022-11-05T22:29:02.035Z,58.04
2022-11-05T22:31:33.120Z,57.59
2022-11-05T22:34:02.993Z,58.26
2022-11-05T22:36:29.579Z,57.85
2022-11-05T22:38:56.178Z,58.69
2022-11-05T22:41:22.878Z,57.42
2022-11-05T22:43:50.143Z,58.71
2022-11-05T22:46:20.709Z,57.97
2022-11-05T22:48:48.046Z,58.06
2022-11-05T22:51:17.569Z,58.38
2022-11-05T22:53:44.556Z,58.32
2022-11-05T22:56:14.187Z,59.46
2022-11-05T22:58:41.749Z,59.27
2022-11-05T23:01:11.800Z,59.52
2022-11-05T23:03:39.957Z,58.55
2022-11-05T23:06:35.075Z,59.30
2022-11-05T23:09:18.297Z,60.56
2022-11-05T23:11:49.327Z,60.35
2022-11-05T23:14:16.227Z,60.45
2022-11-05T23:17:01.868Z,58.77
2022-11-05T23:19:47.707Z,58.91
2022-11-05T23:22:35.533Z,59.53
2022-11-05T23:25:02.839Z,58.80
2022-11-05T23:27:34.288Z,59.02
2022-11-05T23:30:02.667Z,59.06
2022-11-05T23:32:31.411Z,58.75
2022-11-05T23:34:58.974Z,59.38
2022-11-05T23:37:46.744Z,59.21
2022-11-05T23:40:16.757Z,58.48
2022-11-05T23:43:02.759Z,59.26
2022-11-05T23:45:49.575Z,59.91
2022-11-05T23:48:33.457Z,59.36
2022-11-05T23:51:09.275Z,58.82
2022-11-05T23:53:39.389Z,59.99
2022-11-05T23:56:11.683Z,59.84
2022-11-05T23:58:39.575Z,59.22
